createdAt,value
2018-09-30T00:00:19.224Z,6.00
2018-09-30T00:02:49.115Z,6.00
2018-09-30T00:05:18.655Z,6.10
2018-09-30T00:07:48.615Z,6.10
2018-09-30T00:10:20.615Z,6.00
2018-09-30T00:12:50.314Z,5.90
2018-09-30T00:15:20.056Z,5.70
2018-09-30T00:17:49.536Z,5.70
2018-09-30T00:20:19.518Z,5.70
2018-09-30T00:22:49.437Z,5.70
2018-09-30T00:25:24.195Z,5.80
2018-09-30T00:27:54.055Z,5.80
2018-09-30T00:30:24.154Z,5.70
2018-09-30T00:32:53.814Z,5.70
2018-09-30T00:35:23.726Z,5.70
2018-09-30T00:37:53.717Z,5.70
2018-09-30T00:40:23.818Z,5.70
2018-09-30T00:42:53.777Z,5.70
2018-09-30T00:45:23.678Z,5.60
2018-09-30T00:47:53.717Z,5.70
2018-09-30T00:50:24.137Z,5.60
2018-09-30T00:52:54.157Z,5.60
2018-09-30T00:55:24.217Z,5.60
2018-09-30T00:57:54.077Z,5.50
2018-09-30T01:00:24.275Z,5.40
2018-09-30T01:02:54.498Z,5.30
2018-09-30T01:05:24.418Z,5.30
2018-09-30T01:07:54.318Z,5.40
2018-09-30T01:10:24.458Z,5.40
2018-09-30T01:12:54.526Z,5.40
2018-09-30T01:15:24.578Z,5.50
2018-09-30T01:17:54.717Z,5.50
2018-09-30T01:20:24.598Z,5.50
2018-09-30T01:22:54.479Z,5.30
2018-09-30T01:25:24.579Z,5.10
2018-09-30T01:27:54.562Z,4.90
2018-09-30T01:30:24.419Z,4.70
2018-09-30T01:32:54.419Z,4.70
2018-09-30T01:35:24.598Z,4.70
2018-09-30T01:37:54.638Z,4.80
2018-09-30T01:40:24.658Z,4.70
2018-09-30T01:42:54.579Z,4.70
2018-09-30T01:45:24.626Z,4.70
2018-09-30T01:47:54.519Z,4.70
2018-09-30T01:50:24.466Z,4.60
2018-09-30T01:52:57.538Z,4.60
2018-09-30T01:55:27.518Z,4.50
2018-09-30T01:57:57.379Z,4.50
2018-09-30T02:00:26.910Z,4.40
2018-09-30T02:02:56.697Z,4.20
2018-09-30T02:05:26.840Z,4.00
2018-09-30T02:07:56.698Z,3.90
2018-09-30T02:10:26.697Z,3.90
2018-09-30T02:12:56.797Z,4.00
2018-09-30T02:15:26.821Z,4.20
2018-09-30T02:17:56.958Z,4.30
2018-09-30T02:20:27.019Z,4.40
2018-09-30T02:22:57.022Z,4.40
2018-09-30T02:25:26.859Z,4.50
2018-09-30T02:27:56.863Z,4.60
2018-09-30T02:30:26.899Z,4.70
2018-09-30T02:32:56.939Z,4.70
2018-09-30T02:35:27.739Z,4.80
2018-09-30T02:37:57.899Z,4.80
2018-09-30T02:40:27.982Z,4.80
2018-09-30T02:42:58.058Z,4.80
2018-09-30T02:45:28.297Z,4.80
2018-09-30T02:47:58.537Z,4.80
2018-09-30T02:50:28.398Z,4.80
2018-09-30T02:52:58.377Z,4.80
2018-09-30T02:55:28.498Z,4.80
2018-09-30T02:57:58.455Z,4.70
2018-09-30T03:00:27.971Z,4.70
2018-09-30T03:02:58.061Z,4.70
2018-09-30T03:05:28.176Z,4.60
2018-09-30T03:08:03.181Z,4.50
2018-09-30T03:10:33.196Z,4.40
2018-09-30T03:13:03.177Z,4.40
2018-09-30T03:15:33.236Z,4.30
2018-09-30T03:18:03.537Z,4.30
2018-09-30T03:20:33.656Z,4.30
2018-09-30T03:23:03.596Z,4.30
2018-09-30T03:25:33.577Z,4.20
2018-09-30T03:28:03.436Z,4.10
2018-09-30T03:30:33.356Z,4.10
2018-09-30T03:33:03.479Z,4.10
2018-09-30T03:35:33.616Z,4.20
2018-09-30T03:38:03.516Z,4.20
2018-09-30T03:40:36.320Z,4.20
2018-09-30T03:43:06.401Z,4.20
2018-09-30T03:45:36.356Z,4.10
2018-09-30T03:48:06.516Z,4.10
2018-09-30T03:50:37.256Z,4.00
2018-09-30T03:53:07.576Z,4.00
2018-09-30T03:55:37.516Z,4.00
2018-09-30T03:58:07.356Z,3.90
2018-09-30T04:00:37.573Z,3.90
2018-09-30T04:03:11.854Z,3.90
2018-09-30T04:05:41.935Z,4.00
2018-09-30T04:08:12.014Z,4.10
2018-09-30T04:10:42.054Z,4.10
2018-09-30T04:13:12.154Z,4.10
2018-09-30T04:15:42.534Z,3.90
2018-09-30T04:18:12.435Z,3.80
2018-09-30T04:20:42.394Z,3.60
2018-09-30T04:23:12.195Z,3.60
2018-09-30T04:25:42.054Z,3.60
2018-09-30T04:30:45.954Z,3.60
2018-09-30T04:33:15.705Z,3.60
2018-09-30T04:35:45.375Z,3.70
2018-09-30T04:38:15.135Z,3.80
2018-09-30T04:40:44.854Z,3.90
2018-09-30T04:43:18.955Z,3.90
2018-09-30T04:45:48.755Z,3.80
2018-09-30T04:48:18.534Z,3.70
2018-09-30T04:50:48.617Z,3.50
2018-09-30T04:53:18.374Z,3.40
2018-09-30T04:55:48.054Z,3.40
2018-09-30T04:58:18.055Z,3.40
2018-09-30T05:00:48.275Z,3.40
2018-09-30T05:03:18.795Z,3.50
2018-09-30T05:05:48.862Z,3.60
2018-09-30T05:08:18.994Z,3.70
2018-09-30T05:10:48.835Z,3.70
2018-09-30T05:13:18.676Z,3.80
2018-09-30T05:15:48.588Z,3.90
2018-09-30T05:18:18.516Z,4.30
2018-09-30T05:20:48.476Z,4.60
2018-09-30T05:23:18.155Z,4.70
2018-09-30T05:25:55.952Z,4.90
2018-09-30T05:28:27.336Z,5.40
2018-09-30T05:30:57.057Z,6.00
2018-09-30T05:33:26.774Z,6.70
2018-09-30T05:35:56.615Z,7.40
2018-09-30T05:38:26.515Z,7.90
2018-09-30T05:40:56.419Z,8.40
2018-09-30T05:43:26.554Z,8.70
2018-09-30T05:45:56.335Z,9.10
2018-09-30T05:48:26.315Z,10.00
2018-09-30T05:50:56.374Z,10.80
2018-09-30T05:53:26.515Z,12.00
2018-09-30T05:55:56.457Z,13.00
2018-09-30T05:58:26.494Z,14.20
2018-09-30T06:00:56.778Z,15.10
2018-09-30T06:03:26.797Z,15.80
2018-09-30T06:05:56.916Z,16.70
2018-09-30T06:08:28.336Z,17.60
2018-09-30T06:10:58.475Z,18.40
2018-09-30T06:13:30.237Z,18.70
2018-09-30T06:16:00.715Z,19.50
2018-09-30T06:18:31.294Z,20.10
2018-09-30T06:21:02.254Z,20.60
2018-09-30T06:23:33.894Z,21.10
2018-09-30T06:26:07.615Z,21.40
2018-09-30T06:28:40.154Z,21.60
2018-09-30T06:31:11.075Z,21.80
2018-09-30T06:33:41.603Z,22.20
2018-09-30T06:36:11.978Z,22.60
2018-09-30T06:41:16.656Z,23.50
2018-09-30T06:43:47.034Z,23.60
2018-09-30T06:46:17.414Z,24.10
2018-09-30T06:48:47.535Z,24.10
2018-09-30T06:51:17.936Z,24.00
2018-09-30T06:53:48.634Z,24.00
2018-09-30T06:56:19.015Z,24.00
2018-09-30T06:58:49.154Z,23.90
2018-09-30T07:01:19.141Z,23.90
2018-09-30T07:03:49.241Z,23.90
2018-09-30T07:06:19.518Z,24.60
2018-09-30T07:08:49.838Z,25.00
2018-09-30T07:11:20.198Z,25.50
2018-09-30T07:13:50.540Z,25.50
2018-09-30T07:16:20.880Z,25.70
2018-09-30T07:18:51.356Z,26.10
2018-09-30T07:21:25.897Z,25.90
2018-09-30T07:23:56.016Z,25.70
2018-09-30T07:26:26.094Z,25.80
2018-09-30T07:28:56.454Z,25.70
2018-09-30T07:31:26.894Z,25.70
2018-09-30T07:33:56.935Z,25.90
2018-09-30T07:36:27.096Z,26.40
2018-09-30T07:38:57.114Z,26.00
2018-09-30T07:41:27.516Z,26.00
2018-09-30T07:43:57.295Z,25.50
2018-09-30T07:46:27.374Z,23.30
2018-09-30T07:48:57.618Z,20.10
2018-09-30T07:51:27.678Z,17.50
2018-09-30T07:53:57.887Z,15.80
2018-09-30T07:56:28.216Z,14.60
2018-09-30T07:58:58.376Z,13.70
2018-09-30T08:01:29.036Z,13.10
2018-09-30T08:03:59.475Z,12.80
2018-09-30T08:06:34.443Z,12.70
2018-09-30T08:09:09.355Z,12.50
2018-09-30T08:11:43.556Z,12.40
2018-09-30T08:14:13.762Z,11.90
2018-09-30T08:16:44.092Z,11.60
2018-09-30T08:19:14.396Z,11.80
2018-09-30T08:21:45.298Z,12.10
2018-09-30T08:24:16.061Z,12.20
2018-09-30T08:26:46.398Z,12.40
2018-09-30T08:29:17.037Z,12.60
2018-09-30T08:31:47.695Z,12.80
2018-09-30T08:34:18.618Z,12.80
2018-09-30T08:36:48.898Z,12.90
2018-09-30T08:39:19.200Z,12.90
2018-09-30T08:41:49.718Z,12.60
2018-09-30T08:44:19.649Z,12.60
2018-09-30T08:46:50.235Z,12.70
2018-09-30T08:49:20.593Z,12.80
2018-09-30T08:51:51.518Z,12.70
2018-09-30T08:54:21.899Z,12.80
2018-09-30T08:56:52.418Z,12.80
2018-09-30T08:59:23.119Z,12.80
2018-09-30T09:01:52.858Z,12.80
2018-09-30T09:04:22.697Z,12.80
2018-09-30T09:06:52.404Z,12.70
2018-09-30T09:09:22.384Z,12.70
2018-09-30T09:11:52.421Z,12.60
2018-09-30T09:14:22.881Z,12.70
2018-09-30T09:16:52.961Z,12.90
2018-09-30T09:19:23.060Z,12.90
2018-09-30T09:21:52.840Z,12.80
2018-09-30T09:24:22.862Z,12.60
2018-09-30T09:26:53.200Z,12.40
2018-09-30T09:29:23.022Z,12.50
2018-09-30T09:31:57.564Z,12.60
2018-09-30T09:34:27.765Z,12.70
2018-09-30T09:36:57.721Z,12.50
2018-09-30T09:39:32.089Z,12.70
2018-09-30T09:42:02.282Z,12.90
2018-09-30T09:44:32.401Z,13.00
2018-09-30T09:47:02.467Z,13.10
2018-09-30T09:49:32.582Z,13.30
2018-09-30T09:52:02.710Z,13.50
2018-09-30T09:54:32.822Z,13.50
2018-09-30T09:57:03.101Z,13.30
2018-09-30T09:59:33.287Z,13.20
2018-09-30T10:02:03.357Z,13.30
2018-09-30T10:04:33.518Z,13.50
2018-09-30T10:07:03.380Z,13.40
2018-09-30T10:09:33.136Z,13.20
2018-09-30T10:12:02.889Z,13.10
2018-09-30T10:14:32.684Z,13.10
2018-09-30T10:17:02.505Z,13.20
2018-09-30T10:19:32.951Z,13.30
2018-09-30T10:22:02.715Z,13.40
2018-09-30T10:24:37.115Z,13.40
2018-09-30T10:27:07.091Z,13.50
2018-09-30T10:29:36.989Z,13.50
2018-09-30T10:32:06.914Z,13.50
2018-09-30T10:34:36.656Z,13.50
2018-09-30T10:37:06.856Z,13.30
2018-09-30T10:39:36.596Z,13.30
2018-09-30T10:42:06.706Z,13.40
2018-09-30T10:44:36.583Z,13.50
2018-09-30T10:47:06.725Z,13.70
2018-09-30T10:49:36.735Z,13.90
2018-09-30T10:52:06.563Z,13.70
2018-09-30T10:54:36.456Z,13.40
2018-09-30T10:57:06.214Z,13.30
2018-09-30T10:59:44.437Z,13.50
2018-09-30T11:02:14.856Z,13.70
2018-09-30T11:04:44.767Z,13.80
2018-09-30T11:07:14.488Z,13.80
2018-09-30T11:09:44.233Z,14.00
2018-09-30T11:12:13.963Z,14.00
2018-09-30T11:17:17.578Z,13.70
2018-09-30T11:22:21.522Z,13.90
2018-09-30T11:24:51.374Z,13.80
2018-09-30T11:27:21.483Z,13.90
2018-09-30T11:29:55.403Z,14.00
2018-09-30T11:34:59.635Z,14.20
2018-09-30T11:37:29.862Z,14.30
2018-09-30T11:40:00.263Z,14.20
2018-09-30T11:42:30.736Z,14.30
2018-09-30T11:45:00.895Z,14.40
2018-09-30T11:47:31.016Z,14.50
2018-09-30T11:50:00.938Z,14.60
2018-09-30T11:52:30.890Z,14.60
2018-09-30T11:55:01.197Z,13.90
2018-09-30T11:57:31.615Z,13.50
2018-09-30T12:00:01.953Z,13.60
2018-09-30T12:02:32.805Z,13.60
2018-09-30T12:05:02.740Z,13.90
2018-09-30T12:07:32.559Z,14.20
2018-09-30T12:10:02.544Z,14.30
2018-09-30T12:12:34.040Z,14.30
2018-09-30T12:15:03.903Z,14.30
2018-09-30T12:17:33.677Z,14.40
2018-09-30T12:20:03.816Z,14.50
2018-09-30T12:22:33.680Z,14.70
2018-09-30T12:25:03.426Z,14.70
2018-09-30T12:27:33.300Z,14.80
2018-09-30T12:30:07.034Z,14.70
2018-09-30T12:32:37.135Z,14.70
2018-09-30T12:35:07.203Z,14.80
2018-09-30T12:37:37.722Z,14.80
2018-09-30T12:40:10.477Z,14.80
2018-09-30T12:42:40.604Z,14.80
2018-09-30T12:45:10.691Z,14.90
2018-09-30T12:47:40.964Z,14.80
2018-09-30T12:50:10.904Z,14.80
2018-09-30T12:52:40.884Z,14.70
2018-09-30T12:55:10.901Z,14.80
2018-09-30T12:57:40.939Z,14.70
2018-09-30T13:00:12.255Z,14.70
2018-09-30T13:02:42.596Z,14.70
2018-09-30T13:05:12.895Z,14.60
2018-09-30T13:07:43.076Z,14.70
2018-09-30T13:10:13.314Z,14.60
2018-09-30T13:12:43.334Z,14.60
2018-09-30T13:15:13.794Z,14.70
2018-09-30T13:17:44.134Z,14.90
2018-09-30T13:20:14.554Z,14.90
2018-09-30T13:22:44.574Z,15.00
2018-09-30T13:25:14.634Z,15.10
2018-09-30T13:27:44.774Z,15.10
2018-09-30T13:30:14.819Z,15.10
2018-09-30T13:32:45.214Z,15.00
2018-09-30T13:35:15.374Z,15.00
2018-09-30T13:37:45.415Z,15.20
2018-09-30T13:40:19.520Z,15.20
2018-09-30T13:42:53.894Z,15.10
2018-09-30T13:45:24.304Z,15.10
2018-09-30T13:47:54.754Z,15.20
2018-09-30T13:50:25.016Z,15.20
2018-09-30T13:52:55.494Z,15.20
2018-09-30T13:55:25.915Z,15.10
2018-09-30T13:57:56.014Z,15.20
2018-09-30T14:00:30.375Z,15.20
2018-09-30T14:03:01.254Z,15.20
2018-09-30T14:05:32.536Z,15.20
2018-09-30T14:08:05.834Z,15.10
2018-09-30T14:10:38.435Z,15.10
2018-09-30T14:13:11.855Z,15.00
2018-09-30T14:15:45.324Z,14.90
2018-09-30T14:18:15.454Z,14.70
2018-09-30T14:20:46.015Z,14.50
2018-09-30T14:23:16.635Z,14.40
2018-09-30T14:25:49.579Z,14.50
2018-09-30T14:28:22.794Z,14.60
2018-09-30T14:30:54.557Z,14.80
2018-09-30T14:33:26.235Z,15.00
2018-09-30T14:35:57.914Z,14.90
2018-09-30T14:38:28.758Z,14.70
2018-09-30T14:40:58.788Z,14.70
2018-09-30T14:43:29.677Z,14.80
2018-09-30T14:46:03.062Z,15.00
2018-09-30T14:48:37.697Z,15.10
2018-09-30T14:51:09.375Z,15.20
2018-09-30T14:53:39.983Z,15.20
2018-09-30T14:56:10.844Z,15.00
2018-09-30T14:58:45.340Z,15.00
2018-09-30T15:01:15.304Z,14.90
2018-09-30T15:03:45.082Z,14.90
2018-09-30T15:06:15.172Z,14.80
2018-09-30T15:08:45.604Z,14.80
2018-09-30T15:11:16.055Z,14.80
2018-09-30T15:16:21.518Z,15.00
2018-09-30T15:18:56.198Z,15.00
2018-09-30T15:21:26.639Z,15.00
2018-09-30T15:24:05.262Z,15.00
2018-09-30T15:26:35.638Z,14.80
2018-09-30T15:29:05.997Z,14.50
2018-09-30T15:31:35.975Z,14.30
2018-09-30T15:34:06.197Z,14.10
2018-09-30T15:36:36.316Z,14.10
2018-09-30T15:39:11.722Z,14.20
2018-09-30T15:41:42.419Z,14.30
2018-09-30T15:44:13.412Z,14.40
2018-09-30T15:50:05.802Z,14.40
2018-09-30T15:52:36.662Z,14.40
2018-09-30T15:58:31.296Z,14.20
2018-09-30T16:01:01.258Z,14.10
2018-09-30T16:03:30.856Z,14.00
2018-09-30T16:06:05.137Z,13.90
2018-09-30T16:08:38.676Z,13.80
2018-09-30T16:11:12.756Z,13.70
2018-09-30T16:13:42.624Z,13.60
2018-09-30T16:16:12.136Z,13.50
2018-09-30T16:18:41.876Z,13.30
2018-09-30T16:21:11.537Z,13.20
2018-09-30T16:23:41.099Z,13.10
2018-09-30T16:26:12.479Z,13.00
2018-09-30T16:28:41.957Z,12.90
2018-09-30T16:31:12.697Z,12.80
2018-09-30T16:33:42.516Z,12.70
2018-09-30T16:36:12.696Z,12.70
2018-09-30T16:38:42.162Z,12.60
2018-09-30T16:41:12.156Z,12.50
2018-09-30T16:43:42.065Z,12.50
2018-09-30T16:46:11.488Z,12.30
2018-09-30T16:48:42.416Z,12.20
2018-09-30T16:51:16.478Z,12.10
2018-09-30T16:53:46.016Z,12.10
2018-09-30T16:59:12.799Z,11.90
2018-09-30T17:01:42.105Z,11.80
2018-09-30T17:04:11.683Z,11.80
2018-09-30T17:06:45.344Z,11.70
2018-09-30T17:09:15.143Z,11.60
2018-09-30T17:11:44.965Z,11.60
2018-09-30T17:14:16.216Z,11.70
2018-09-30T17:16:46.463Z,11.70
2018-09-30T17:19:16.263Z,11.60
2018-09-30T17:21:47.243Z,11.60
2018-09-30T17:24:16.883Z,11.50
2018-09-30T17:26:53.203Z,11.50
2018-09-30T17:29:23.123Z,11.50
2018-09-30T17:31:53.223Z,11.50
2018-09-30T17:34:24.285Z,11.50
2018-09-30T17:36:55.180Z,11.50
2018-09-30T17:39:24.766Z,11.50
2018-09-30T17:41:54.624Z,11.50
2018-09-30T17:44:24.561Z,11.40
2018-09-30T17:46:54.640Z,11.40
2018-09-30T17:49:24.561Z,11.40
2018-09-30T17:51:54.497Z,11.30
2018-09-30T17:54:24.899Z,11.30
2018-09-30T17:56:56.042Z,11.30
2018-09-30T17:59:26.536Z,11.30
2018-09-30T18:01:56.499Z,11.20
2018-09-30T18:04:27.758Z,11.20
2018-09-30T18:06:58.580Z,11.20
2018-09-30T18:09:28.779Z,11.20
2018-09-30T18:11:59.139Z,11.20
2018-09-30T18:14:30.240Z,11.20
2018-09-30T18:17:01.568Z,11.10
2018-09-30T18:19:31.838Z,11.10
2018-09-30T18:22:02.497Z,11.10
2018-09-30T18:24:32.758Z,11.10
2018-09-30T18:27:02.877Z,11.00
2018-09-30T18:29:33.539Z,10.90
2018-09-30T18:32:04.476Z,10.90
2018-09-30T18:34:35.116Z,10.80
2018-09-30T18:37:05.764Z,10.80
2018-09-30T18:39:35.844Z,10.80
2018-09-30T18:42:06.323Z,10.80
2018-09-30T18:44:36.773Z,10.70
2018-09-30T18:47:07.243Z,10.70
2018-09-30T18:49:37.744Z,10.70
2018-09-30T18:52:08.980Z,10.60
2018-09-30T18:54:39.415Z,10.60
2018-09-30T18:57:09.917Z,10.60
2018-09-30T18:59:45.444Z,10.50
2018-09-30T19:02:18.588Z,10.60
2018-09-30T19:04:49.218Z,10.50
2018-09-30T19:07:20.318Z,10.50
2018-09-30T19:09:52.118Z,10.50
2018-09-30T19:12:22.173Z,10.50
2018-09-30T19:14:52.485Z,10.50
2018-09-30T19:17:22.579Z,10.40
2018-09-30T19:19:56.955Z,10.40
2018-09-30T19:22:27.283Z,10.40
2018-09-30T19:24:57.709Z,10.30
2018-09-30T19:27:27.862Z,10.30
2018-09-30T19:30:00.673Z,10.20
2018-09-30T19:32:31.099Z,10.10
2018-09-30T19:35:01.259Z,10.00
2018-09-30T19:37:31.516Z,10.00
2018-09-30T19:40:01.590Z,9.90
2018-09-30T19:42:31.560Z,9.90
2018-09-30T19:45:01.870Z,9.80
2018-09-30T19:47:31.977Z,9.70
2018-09-30T19:50:02.179Z,9.70
2018-09-30T19:52:32.358Z,9.60
2018-09-30T19:55:02.457Z,9.60
2018-09-30T19:57:32.463Z,9.60
2018-09-30T20:00:02.411Z,9.60
2018-09-30T20:02:32.640Z,9.50
2018-09-30T20:05:02.765Z,9.50
2018-09-30T20:07:32.928Z,9.40
2018-09-30T20:10:03.026Z,9.30
2018-09-30T20:12:33.159Z,9.30
2018-09-30T20:15:07.340Z,9.20
2018-09-30T20:17:37.136Z,9.20
2018-09-30T20:20:07.506Z,9.20
2018-09-30T20:22:37.509Z,9.20
2018-09-30T20:25:07.688Z,9.20
2018-09-30T20:27:37.568Z,9.20
2018-09-30T20:30:08.205Z,9.10
2018-09-30T20:32:38.266Z,9.10
2018-09-30T20:35:09.284Z,9.10
2018-09-30T20:37:39.425Z,9.10
2018-09-30T20:40:09.964Z,9.10
2018-09-30T20:42:40.064Z,9.10
2018-09-30T20:45:10.264Z,9.10
2018-09-30T20:47:40.297Z,9.10
2018-09-30T20:50:10.376Z,9.10
2018-09-30T20:52:41.923Z,9.10
2018-09-30T20:55:12.076Z,9.00
2018-09-30T20:57:42.556Z,9.00
2018-09-30T21:00:12.592Z,9.00
2018-09-30T21:02:42.764Z,9.00
2018-09-30T21:06:13.199Z,8.90
2018-09-30T21:08:44.360Z,8.90
2018-09-30T21:11:14.739Z,8.90
2018-09-30T21:13:44.856Z,8.80
2018-09-30T21:16:15.498Z,8.80
2018-09-30T21:18:45.605Z,8.90
2018-09-30T21:21:15.596Z,8.90
2018-09-30T21:23:45.639Z,8.90
2018-09-30T21:26:15.635Z,8.90
2018-09-30T21:28:45.624Z,8.90
2018-09-30T21:31:15.417Z,8.90
2018-09-30T21:33:45.315Z,8.80
2018-09-30T21:36:15.156Z,8.70
2018-09-30T21:38:45.175Z,8.70
2018-09-30T21:41:19.336Z,8.70
2018-09-30T21:43:49.455Z,8.70
2018-09-30T21:46:21.218Z,8.70
2018-09-30T21:48:51.543Z,8.70
2018-09-30T21:51:21.516Z,8.70
2018-09-30T21:53:51.438Z,8.70
2018-09-30T21:56:21.876Z,8.70
2018-09-30T21:58:51.956Z,8.60
2018-09-30T22:01:21.840Z,8.60
2018-09-30T22:03:52.154Z,8.70
2018-09-30T22:06:22.556Z,8.60
2018-09-30T22:08:52.417Z,8.60
2018-09-30T22:11:22.320Z,8.60
2018-09-30T22:16:26.376Z,8.60
2018-09-30T22:18:56.838Z,8.60
2018-09-30T22:21:26.697Z,8.60
2018-09-30T22:23:56.956Z,8.50
2018-09-30T22:26:26.937Z,8.50
2018-09-30T22:28:56.936Z,8.50
2018-09-30T22:31:26.756Z,8.50
2018-09-30T22:33:56.735Z,8.50
2018-09-30T22:36:26.636Z,8.40
2018-09-30T22:38:56.815Z,8.40
2018-09-30T22:41:26.956Z,8.30
2018-09-30T22:43:56.855Z,8.30
2018-09-30T22:46:30.636Z,8.30
2018-09-30T22:49:00.556Z,8.20
2018-09-30T22:54:04.476Z,8.10
2018-09-30T22:56:34.695Z,8.00
2018-09-30T22:59:04.478Z,8.00
2018-09-30T23:01:34.596Z,7.90
2018-09-30T23:04:04.315Z,7.80
2018-09-30T23:06:34.255Z,7.80
2018-09-30T23:09:05.096Z,7.80
2018-09-30T23:11:35.195Z,7.70
2018-09-30T23:14:06.675Z,7.70
2018-09-30T23:16:36.575Z,7.60
2018-09-30T23:19:06.695Z,7.50
2018-09-30T23:21:36.718Z,7.30
2018-09-30T23:24:06.698Z,7.20
2018-09-30T23:26:37.015Z,7.20
2018-09-30T23:29:06.955Z,7.20
2018-09-30T23:31:37.101Z,7.20
2018-09-30T23:34:07.361Z,7.10
2018-09-30T23:36:37.580Z,7.10
2018-09-30T23:39:11.211Z,7.00
2018-09-30T23:41:41.581Z,7.00
2018-09-30T23:44:11.660Z,6.90
2018-09-30T23:46:41.740Z,6.90
2018-09-30T23:49:11.838Z,6.80
2018-09-30T23:51:41.900Z,6.90
2018-09-30T23:54:12.280Z,6.80
2018-09-30T23:56:42.281Z,6.90
2018-09-30T23:59:12.520Z,6.90
